createdAt,value
2022-11-12T00:00:44.198Z,7.80
2022-11-12T00:06:05.914Z,7.81
2022-11-12T00:11:27.596Z,7.81
2022-11-12T00:16:49.314Z,7.48
2022-11-12T00:22:11.086Z,7.62
2022-11-12T00:27:33.666Z,7.61
2022-11-12T00:32:55.338Z,7.50
2022-11-12T00:38:17.074Z,7.48
2022-11-12T00:43:38.771Z,7.47
2022-11-12T00:49:00.514Z,7.51
2022-11-12T00:54:22.221Z,7.37
2022-11-12T00:59:43.914Z,7.11
2022-11-12T01:05:05.783Z,7.16
2022-11-12T01:10:27.611Z,7.25
2022-11-12T01:15:49.344Z,7.28
2022-11-12T01:21:11.351Z,7.17
2022-11-12T01:26:33.119Z,7.25
2022-11-12T01:31:54.857Z,7.04
2022-11-12T01:37:16.535Z,6.79
2022-11-12T01:42:39.114Z,6.87
2022-11-12T01:48:01.441Z,6.86
2022-11-12T01:53:27.711Z,6.94
2022-11-12T01:58:53.850Z,7.02
2022-11-12T02:04:16.333Z,6.87
2022-11-12T02:09:38.176Z,6.85
2022-11-12T02:15:00.090Z,6.83
2022-11-12T02:20:21.855Z,6.74
2022-11-12T02:25:43.563Z,6.85
2022-11-12T02:31:05.356Z,6.67
2022-11-12T02:36:27.989Z,6.62
2022-11-12T02:41:49.790Z,6.53
2022-11-12T02:47:11.457Z,6.68
2022-11-12T02:52:33.175Z,6.50
2022-11-12T02:57:58.513Z,6.49
2022-11-12T03:03:20.235Z,6.54
2022-11-12T03:08:41.898Z,6.64
2022-11-12T03:14:03.616Z,6.48
2022-11-12T03:19:25.310Z,6.41
2022-11-12T03:24:47.061Z,6.47
2022-11-12T03:30:09.031Z,6.47
2022-11-12T03:35:31.977Z,6.44
2022-11-12T03:40:53.652Z,6.22
2022-11-12T03:46:15.327Z,6.21
2022-11-12T03:51:36.998Z,6.03
2022-11-12T03:56:58.672Z,5.89
2022-11-12T04:02:20.339Z,6.02
2022-11-12T04:08:00.515Z,6.03
2022-11-12T04:13:28.098Z,6.12
2022-11-12T04:19:10.147Z,6.06
2022-11-12T04:24:52.880Z,6.08
2022-11-12T04:30:18.632Z,6.18
2022-11-12T04:35:40.317Z,6.12
2022-11-12T04:41:20.625Z,6.05
2022-11-12T04:46:42.339Z,6.15
2022-11-12T04:52:07.234Z,5.97
2022-11-12T04:57:29.077Z,6.04
2022-11-12T05:02:50.793Z,6.04
2022-11-12T05:08:12.487Z,6.08
2022-11-12T05:13:34.181Z,6.15
2022-11-12T05:18:55.872Z,6.11
2022-11-12T05:24:40.117Z,6.04
2022-11-12T05:29:59.279Z,6.00
2022-11-12T05:35:21.002Z,6.00
2022-11-12T05:40:45.156Z,6.03
2022-11-12T05:46:07.039Z,5.92
2022-11-12T05:51:28.762Z,5.86
2022-11-12T05:56:51.838Z,5.78
2022-11-12T06:02:13.582Z,5.81
2022-11-12T06:07:35.307Z,5.85
2022-11-12T06:12:57.179Z,5.88
2022-11-12T06:18:18.879Z,5.87
2022-11-12T06:23:40.543Z,5.86
2022-11-12T06:29:02.226Z,5.84
2022-11-12T06:34:23.913Z,5.74
2022-11-12T06:39:45.582Z,5.74
2022-11-12T06:45:07.877Z,5.85
2022-11-12T06:50:29.608Z,5.85
2022-11-12T06:55:51.965Z,5.70
2022-11-12T07:01:15.427Z,5.85
2022-11-12T07:06:37.258Z,5.88
2022-11-12T07:11:59.068Z,5.88
2022-11-12T07:17:21.958Z,5.97
2022-11-12T07:22:43.698Z,5.94
2022-11-12T07:28:05.370Z,6.10
2022-11-12T07:33:28.822Z,6.23
2022-11-12T07:38:53.213Z,6.33
2022-11-12T07:44:14.870Z,6.17
2022-11-12T07:49:36.543Z,6.24
2022-11-12T07:54:58.189Z,6.39
2022-11-12T08:00:19.988Z,6.25
2022-11-12T08:05:41.970Z,6.29
2022-11-12T08:11:03.767Z,6.30
2022-11-12T08:16:25.564Z,6.45
2022-11-12T08:21:47.295Z,6.42
2022-11-12T08:27:09.026Z,6.45
2022-11-12T08:32:30.980Z,6.51
2022-11-12T08:37:58.440Z,6.52
2022-11-12T08:43:20.145Z,6.57
2022-11-12T08:48:41.873Z,6.71
2022-11-12T08:54:03.649Z,6.78
2022-11-12T08:59:25.428Z,6.85
2022-11-12T09:04:47.101Z,6.97
2022-11-12T09:10:08.886Z,7.02
2022-11-12T09:15:36.838Z,7.16
2022-11-12T09:21:08.532Z,7.18
2022-11-12T09:26:30.207Z,7.31
2022-11-12T09:31:51.860Z,7.41
2022-11-12T09:37:13.619Z,7.50
2022-11-12T09:42:36.944Z,7.63
2022-11-12T09:48:05.459Z,7.60
2022-11-12T09:54:08.782Z,7.74
2022-11-12T09:59:33.269Z,7.82
2022-11-12T10:05:06.753Z,7.87
2022-11-12T10:10:32.656Z,8.02
2022-11-12T10:16:15.791Z,8.09
2022-11-12T10:21:57.981Z,8.23
2022-11-12T10:27:22.643Z,8.24
2022-11-12T10:32:46.198Z,8.36
2022-11-12T10:38:14.748Z,8.47
2022-11-12T10:43:36.650Z,8.52
2022-11-12T10:49:19.928Z,8.60
2022-11-12T10:54:41.834Z,8.68
2022-11-12T11:00:09.472Z,8.76
2022-11-12T11:05:31.146Z,8.85
2022-11-12T11:11:14.000Z,8.82
2022-11-12T11:16:51.260Z,8.94
2022-11-12T11:22:42.633Z,9.09
2022-11-12T11:28:19.054Z,9.16
2022-11-12T11:33:55.009Z,9.30
2022-11-12T11:39:23.162Z,9.40
2022-11-12T11:45:04.863Z,9.47
2022-11-12T11:50:29.162Z,9.59
2022-11-12T11:56:03.733Z,9.62
2022-11-12T12:01:34.810Z,9.72
2022-11-12T12:07:15.245Z,9.84
2022-11-12T12:12:47.148Z,9.94
2022-11-12T12:18:39.302Z,10.03
2022-11-12T12:24:20.511Z,10.17
2022-11-12T12:30:06.864Z,10.30
2022-11-12T12:35:34.568Z,10.38
2022-11-12T12:41:27.884Z,10.48
2022-11-12T12:46:56.739Z,10.51
2022-11-12T12:52:18.523Z,10.55
2022-11-12T12:57:40.664Z,10.59
2022-11-12T13:03:02.496Z,10.64
2022-11-12T13:08:26.307Z,10.67
2022-11-12T13:13:48.228Z,10.70
2022-11-12T13:19:09.944Z,10.73
2022-11-12T13:25:04.473Z,10.78
2022-11-12T13:30:26.083Z,10.82
2022-11-12T13:35:47.812Z,10.88
2022-11-12T13:41:19.429Z,10.89
2022-11-12T13:46:41.511Z,10.92
2022-11-12T13:52:05.685Z,10.95
2022-11-12T13:57:30.732Z,10.98
2022-11-12T14:03:05.282Z,10.87
2022-11-12T14:08:40.324Z,10.90
2022-11-12T14:14:33.890Z,10.88
2022-11-12T14:20:12.769Z,10.87
2022-11-12T14:25:34.870Z,10.87
2022-11-12T14:30:58.889Z,10.83
2022-11-12T14:36:21.170Z,10.86
2022-11-12T14:41:45.951Z,10.84
2022-11-12T14:47:09.516Z,10.82
2022-11-12T14:52:35.314Z,10.78
2022-11-12T14:57:59.212Z,10.72
2022-11-12T15:03:24.454Z,10.72
2022-11-12T15:08:56.780Z,10.69
2022-11-12T15:14:26.685Z,10.63
2022-11-12T15:19:48.400Z,10.60
2022-11-12T15:25:30.962Z,10.50
2022-11-12T15:31:07.625Z,10.47
2022-11-12T15:36:29.395Z,10.43
2022-11-12T15:42:23.447Z,10.36
2022-11-12T15:47:45.512Z,10.31
2022-11-12T15:53:07.349Z,10.27
2022-11-12T15:58:34.173Z,10.22
2022-11-12T16:03:55.831Z,10.15
2022-11-12T16:09:17.562Z,10.10
2022-11-12T16:14:40.186Z,10.06
2022-11-12T16:20:02.004Z,10.01
2022-11-12T16:25:28.213Z,9.97
2022-11-12T16:30:50.840Z,9.85
2022-11-12T16:36:16.035Z,9.71
2022-11-12T16:41:37.730Z,9.70
2022-11-12T16:47:02.452Z,9.60
2022-11-12T16:52:24.102Z,9.61
2022-11-12T16:57:46.046Z,9.59
2022-11-12T17:03:11.447Z,9.51
2022-11-12T17:08:34.175Z,9.36
2022-11-12T17:13:55.994Z,9.37
2022-11-12T17:19:17.671Z,9.32
2022-11-12T17:24:39.346Z,9.27
2022-11-12T17:30:01.212Z,9.22
2022-11-12T17:35:22.930Z,9.18
2022-11-12T17:40:44.680Z,9.06
2022-11-12T17:46:07.983Z,9.08
2022-11-12T17:51:29.724Z,9.04
2022-11-12T17:56:51.419Z,8.94
2022-11-12T18:02:13.173Z,8.90
2022-11-12T18:07:34.852Z,8.79
2022-11-12T18:12:57.671Z,8.82
2022-11-12T18:18:19.722Z,8.80
2022-11-12T18:23:43.728Z,8.67
2022-11-12T18:29:05.694Z,8.57
2022-11-12T18:34:27.466Z,8.56
2022-11-12T18:39:49.148Z,8.55
2022-11-12T18:45:10.930Z,8.54
2022-11-12T18:50:33.723Z,8.42
2022-11-12T18:55:59.848Z,8.44
2022-11-12T19:01:23.499Z,8.46
2022-11-12T19:06:45.309Z,8.41
2022-11-12T19:12:07.044Z,8.30
2022-11-12T19:17:31.163Z,8.07
2022-11-12T19:22:54.107Z,8.22
2022-11-12T19:28:15.802Z,8.19
2022-11-12T19:33:37.521Z,7.95
2022-11-12T19:39:02.365Z,7.84
2022-11-12T19:44:24.077Z,7.91
2022-11-12T19:49:45.745Z,7.88
2022-11-12T19:55:07.808Z,7.97
2022-11-12T20:00:29.538Z,7.88
2022-11-12T20:05:54.347Z,7.97
2022-11-12T20:11:16.880Z,7.98
2022-11-12T20:16:39.384Z,7.98
2022-11-12T20:22:01.095Z,7.96
2022-11-12T20:27:23.115Z,7.88
2022-11-12T20:32:44.955Z,7.79
2022-11-12T20:38:06.676Z,7.76
2022-11-12T20:43:31.884Z,7.76
2022-11-12T20:48:54.753Z,7.67
2022-11-12T20:54:20.730Z,7.67
2022-11-12T20:59:43.230Z,7.63
2022-11-12T21:05:05.824Z,7.58
2022-11-12T21:10:27.591Z,7.59
2022-11-12T21:15:50.146Z,7.45
2022-11-12T21:21:14.317Z,7.36
2022-11-12T21:26:36.399Z,7.30
2022-11-12T21:31:58.184Z,7.35
2022-11-12T21:37:20.000Z,7.33
2022-11-12T21:42:42.530Z,7.25
2022-11-12T21:48:05.218Z,7.22
2022-11-12T21:53:27.234Z,7.15
2022-11-12T21:58:49.010Z,7.11
2022-11-12T22:04:15.487Z,7.13
2022-11-12T22:09:39.761Z,7.12
2022-11-12T22:15:01.554Z,7.07
2022-11-12T22:20:23.466Z,7.06
2022-11-12T22:25:45.173Z,7.06
2022-11-12T22:31:10.237Z,7.05
2022-11-12T22:36:34.690Z,6.98
2022-11-12T22:41:56.379Z,6.87
2022-11-12T22:47:18.066Z,6.79
2022-11-12T22:52:40.152Z,6.72
2022-11-12T22:58:02.230Z,6.68
2022-11-12T23:03:23.989Z,6.58
2022-11-12T23:08:46.009Z,6.52
2022-11-12T23:14:07.689Z,6.49
2022-11-12T23:19:29.375Z,6.43
2022-11-12T23:24:51.070Z,6.36
2022-11-12T23:30:13.010Z,6.40
2022-11-12T23:35:34.758Z,6.47
2022-11-12T23:40:56.611Z,6.48
2022-11-12T23:46:18.939Z,6.48
2022-11-12T23:51:40.625Z,6.32
2022-11-12T23:57:02.330Z,6.30
